Time;durP1;ratioP1;P1;durP2;ratioP2;P2;SDS_P1;SDS_P2;PMS_P1;PMS_P2;Temp;Humidity;BMP_temperature;BMP_pressure;BME280_temperature;BME280_humidity;BME280_pressure;Samples;Min_cycle;Max_cycle;Signal;HPM_P1;HPM_P2
2022/04/28 00:01:47;;;;;;;12.30;8.43;;;;;;;16.17;45.02;94079.44;5000990;28;20046;-84
2022/04/28 00:04:12;;;;;;;10.90;7.70;;;;;;;16.16;44.82;94086.88;5006161;28;20042;-84
2022/04/28 00:06:38;;;;;;;12.40;8.13;;;;;;;16.15;44.80;94082.63;4972639;28;20045;-86
2022/04/28 00:09:04;;;;;;;11.23;8.25;;;;;;;16.15;45.03;94085.38;4960588;28;21875;-84
2022/04/28 00:11:29;;;;;;;12.23;7.53;;;;;;;16.14;44.82;94086.59;5010933;28;20076;-84
2022/04/28 00:13:54;;;;;;;12.63;7.68;;;;;;;16.15;44.65;94079.91;5008283;28;20448;-84
2022/04/28 00:16:20;;;;;;;11.40;7.50;;;;;;;16.14;44.96;94078.41;5007154;28;20551;-84
2022/04/28 00:18:45;;;;;;;9.98;7.53;;;;;;;16.14;44.94;94072.97;5007882;28;20563;-84
2022/04/28 00:21:11;;;;;;;9.93;6.97;;;;;;;16.13;44.95;94074.19;5001888;28;20490;-84
2022/04/28 00:23:36;;;;;;;9.75;7.22;;;;;;;16.16;44.73;94080.66;4956401;28;20038;-84
2022/04/28 00:26:02;;;;;;;12.57;7.32;;;;;;;16.14;45.23;94077.66;4972110;28;20035;-84
2022/04/28 00:28:27;;;;;;;9.77;6.70;;;;;;;16.14;44.86;94074.94;5006609;28;20038;-84
2022/04/28 00:30:52;;;;;;;9.45;6.95;;;;;;;16.14;44.76;94081.13;4991346;28;20037;-84
2022/04/28 00:33:18;;;;;;;11.18;7.53;;;;;;;16.11;44.87;94082.84;4990575;28;20096;-84
2022/04/28 00:35:44;;;;;;;14.73;8.05;;;;;;;16.12;45.14;94083.59;5007365;28;20092;-84
2022/04/28 00:38:11;;;;;;;10.43;7.20;;;;;;;16.12;44.82;94075.41;4990761;28;20030;-84
2022/04/28 00:40:36;;;;;;;10.10;7.20;;;;;;;16.11;44.88;94076.63;4991522;28;20180;-84
2022/04/28 00:43:20;;;;;;;12.52;8.40;;;;;;;16.12;44.35;94086.31;5007758;28;20441;-85
2022/04/28 00:45:46;;;;;;;10.35;7.28;;;;;;;16.12;44.78;94078.13;4993654;28;20059;-84
2022/04/28 00:50:57;;;;;;;10.70;7.10;;;;;;;16.11;44.62;94074.66;5012569;28;20032;-84
2022/04/28 00:53:23;;;;;;;11.13;7.57;;;;;;;16.11;45.04;94080.13;5010416;28;20408;-84
2022/04/28 00:55:48;;;;;;;10.15;6.95;;;;;;;16.10;44.93;94077.88;5010721;28;20033;-83
2022/04/28 00:58:14;;;;;;;9.75;7.15;;;;;;;16.11;44.86;94073.91;5009976;28;20044;-84
2022/04/28 01:00:39;;;;;;;9.52;6.88;;;;;;;16.10;44.67;94075.13;4993956;28;20037;-84
2022/04/28 01:03:05;;;;;;;10.30;7.20;;;;;;;16.09;44.77;94082.56;5009713;28;20030;-88
2022/04/28 01:05:32;;;;;;;10.57;7.38;;;;;;;16.10;44.52;94083.31;5026503;28;20030;-83
2022/04/28 01:07:57;;;;;;;10.63;6.88;;;;;;;16.10;44.67;94075.88;5011103;28;20036;-85
2022/04/28 01:10:23;;;;;;;8.57;6.55;;;;;;;16.10;44.49;94073.16;4995465;28;20046;-84
2022/04/28 01:12:48;;;;;;;9.75;7.00;;;;;;;16.10;44.67;94075.13;4955529;28;20077;-84
2022/04/28 01:15:14;;;;;;;10.20;7.15;;;;;;;16.08;45.13;94061.97;4983714;28;20037;-84
2022/04/28 01:17:39;;;;;;;10.05;7.35;;;;;;;16.09;45.00;94070.91;4992082;28;20039;-83
2022/04/28 01:20:05;;;;;;;9.45;6.82;;;;;;;16.09;44.93;94060.75;4970745;28;20038;-83
2022/04/28 01:22:31;;;;;;;9.77;6.47;;;;;;;16.08;44.52;94066.69;4987424;28;20039;-85
2022/04/28 01:24:56;;;;;;;10.85;7.18;;;;;;;16.08;45.03;94069.41;4975270;28;20038;-84
2022/04/28 01:27:21;;;;;;;8.40;6.60;;;;;;;16.10;44.80;94072.41;4984949;28;20107;-84
2022/04/28 01:29:47;;;;;;;8.95;6.60;;;;;;;16.08;44.82;94061.22;5013218;28;20045;-84
2022/04/28 01:32:12;;;;;;;10.60;6.80;;;;;;;16.08;44.82;94055.78;5013345;28;20036;-84
2022/04/28 01:34:38;;;;;;;11.43;6.72;;;;;;;16.08;44.53;94066.69;5013798;28;20481;-84
2022/04/28 01:37:03;;;;;;;10.52;6.95;;;;;;;16.09;44.33;94062.72;5014129;28;20040;-84
2022/04/28 01:39:29;;;;;;;9.65;5.97;;;;;;;16.08;44.42;94056.53;5005820;28;20037;-84
2022/04/28 01:41:54;;;;;;;11.75;6.53;;;;;;;16.08;44.44;94061.22;4978135;28;20038;-84
2022/04/28 01:44:19;;;;;;;9.02;6.88;;;;;;;16.07;44.53;94063.22;4993590;28;20053;-84
2022/04/28 01:46:45;;;;;;;10.25;6.85;;;;;;;16.08;44.51;94069.41;4994312;28;20037;-84
2022/04/28 01:49:10;;;;;;;8.32;6.57;;;;;;;16.06;44.73;94061.72;5009427;28;20133;-84
2022/04/28 01:57:04;;;;;;;7.78;6.13;;;;;;;16.07;44.67;94059.72;5010258;28;20127;-84
2022/04/28 01:59:29;;;;;;;8.63;6.75;;;;;;;16.08;44.54;94055.78;4993426;28;20508;-84
2022/04/28 02:01:55;;;;;;;10.25;6.22;;;;;;;16.06;44.63;94061.72;5009863;28;20037;-84
2022/04/28 02:04:20;;;;;;;8.95;5.95;;;;;;;16.06;44.61;94058.97;5009332;28;20045;-84
2022/04/28 02:06:46;;;;;;;8.02;5.93;;;;;;;16.07;44.54;94065.19;4977918;28;20030;-83
2022/04/28 02:09:11;;;;;;;9.75;6.65;;;;;;;16.05;44.56;94057.47;4992575;28;20408;-84
2022/04/28 02:11:37;;;;;;;7.43;5.63;;;;;;;16.07;44.27;94062.47;4974858;28;20826;-84
2022/04/28 02:14:02;;;;;;;8.30;6.70;;;;;;;16.07;44.54;94057.00;4993179;28;20038;-86
2022/04/28 02:16:27;;;;;;;7.05;6.07;;;;;;;16.06;44.42;94053.53;4993104;28;20038;-85
2022/04/28 02:18:53;;;;;;;7.45;6.15;;;;;;;16.06;44.45;94063.69;5009544;28;20045;-84
2022/04/28 02:21:18;;;;;;;8.70;6.43;;;;;;;16.05;44.90;94062.19;4969909;28;20034;-84
2022/04/28 02:23:44;;;;;;;9.13;6.07;;;;;;;16.06;45.01;94063.69;4974222;28;20053;-84
2022/04/28 02:26:09;;;;;;;7.57;6.03;;;;;;;16.05;44.64;94064.91;4957557;28;20348;-84
2022/04/28 02:28:35;;;;;;;9.48;6.55;;;;;;;16.03;44.87;94057.22;5003941;28;20116;-84
2022/04/28 02:31:00;;;;;;;8.90;5.82;;;;;;;16.04;44.90;94057.97;4993066;28;20116;-86
2022/04/28 02:33:25;;;;;;;11.00;6.70;;;;;;;16.03;45.01;94051.75;4991407;28;20042;-84
2022/04/28 02:35:51;;;;;;;8.02;6.50;;;;;;;16.03;44.74;94057.22;4993409;28;20305;-84
2022/04/28 02:38:16;;;;;;;9.82;6.32;;;;;;;16.03;44.73;94062.66;4976971;28;20481;-84
2022/04/28 02:40:42;;;;;;;9.93;6.13;;;;;;;16.04;44.77;94066.88;4990038;28;20586;-84
2022/04/28 02:43:07;;;;;;;8.65;5.55;;;;;;;16.04;44.84;94053.25;5011944;28;20059;-85
2022/04/28 02:45:32;;;;;;;9.02;6.28;;;;;;;16.03;44.60;94049.03;5012594;28;20068;-84
2022/04/28 02:47:59;;;;;;;8.50;6.05;;;;;;;16.03;44.47;94054.47;5012473;28;20068;-84
2022/04/28 02:50:25;;;;;;;8.32;5.70;;;;;;;16.02;44.52;94057.72;4995640;28;20594;-84
2022/04/28 02:52:50;;;;;;;9.85;5.88;;;;;;;16.02;44.52;94057.72;4997337;28;20034;-84
2022/04/28 02:55:16;;;;;;;6.97;5.78;;;;;;;16.04;44.63;94058.72;4992685;28;20038;-83
2022/04/28 02:57:41;;;;;;;7.57;5.72;;;;;;;16.03;44.61;94053.72;4992604;28;20061;-83
2022/04/28 03:00:07;;;;;;;9.05;5.53;;;;;;;16.02;44.56;94055.72;4976064;28;20040;-84
2022/04/28 03:02:33;;;;;;;6.93;5.35;;;;;;;16.02;44.56;94057.72;5008860;28;20048;-84
2022/04/28 03:04:58;;;;;;;8.40;6.05;;;;;;;16.01;44.57;94059.69;4976414;28;20045;-83
2022/04/28 03:12:57;;;;;;;6.72;5.20;;;;;;;16.02;44.75;94071.34;4995199;28;20040;-84
2022/04/28 03:15:22;;;;;;;7.18;5.55;;;;;;;16.02;44.37;94057.72;5007664;28;20029;-84
2022/04/28 03:17:48;;;;;;;8.80;6.20;;;;;;;16.01;44.70;94067.88;5009205;28;20047;-84
2022/04/28 03:20:13;;;;;;;9.82;6.65;;;;;;;16.00;44.78;94062.91;5009718;28;20481;-84
2022/04/28 03:22:38;;;;;;;8.35;5.43;;;;;;;16.00;44.42;94060.91;4975455;28;20042;-83
2022/04/28 03:25:05;;;;;;;6.88;5.50;;;;;;;16.00;44.29;94054.72;4956101;28;20046;-84
2022/04/28 03:27:33;;;;;;;8.68;5.93;;;;;;;16.01;44.49;94061.66;4974613;28;20054;-85
2022/04/28 03:29:59;;;;;;;6.60;5.07;;;;;;;16.00;44.49;94071.06;5007857;28;20042;-83
2022/04/28 03:32:24;;;;;;;8.13;5.80;;;;;;;16.00;44.99;94073.81;5008168;28;20030;-84
2022/04/28 03:34:49;;;;;;;8.05;5.72;;;;;;;15.99;44.88;94075.78;4992435;28;20046;-84
2022/04/28 03:37:15;;;;;;;8.65;5.40;;;;;;;16.00;44.55;94074.56;4975555;28;20038;-83
2022/04/28 03:39:41;;;;;;;8.70;5.50;;;;;;;16.01;44.50;94067.13;4990979;28;20097;-85
2022/04/28 03:42:06;;;;;;;7.25;5.55;;;;;;;16.00;44.44;94074.56;5007932;28;20045;-83
2022/04/28 03:44:32;;;;;;;8.88;5.43;;;;;;;16.00;44.16;94077.28;4975110;28;20076;-83
2022/04/28 03:46:58;;;;;;;8.52;6.47;;;;;;;16.02;44.59;94071.34;4992318;28;20041;-85
2022/04/28 03:49:23;;;;;;;8.80;6.00;;;;;;;16.08;44.48;94077.59;4991491;28;20393;-85
2022/04/28 03:51:49;;;;;;;8.73;6.32;;;;;;;16.03;44.51;94078.28;4978342;28;20037;-84
2022/04/28 03:54:14;;;;;;;26.50;18.60;;;;;;;16.07;44.45;94076.09;5011117;28;20115;-85
2022/04/28 03:56:40;;;;;;;13.55;8.27;;;;;;;15.96;43.10;94084.16;4996019;28;20058;-84
2022/04/28 03:59:05;;;;;;;16.45;10.75;;;;;;;15.88;40.93;94077.63;4976694;28;20038;-83
2022/04/28 04:01:31;;;;;;;22.92;11.02;;;;;;;15.79;39.88;94088.66;4998079;28;20037;-83
2022/04/28 04:03:56;;;;;;;24.30;10.25;;;;;;;15.76;40.34;94082.19;5020112;28;20040;-84
2022/04/28 04:06:22;;;;;;;29.58;11.00;;;;;;;15.78;40.28;94085.19;5008754;28;20041;-87
2022/04/28 04:08:49;;;;;;;29.83;11.30;;;;;;;15.76;40.14;94093.09;5007447;28;20034;-84
2022/04/28 04:11:14;;;;;;;36.80;11.55;;;;;;;15.79;40.44;94088.66;5000213;28;20042;-83
2022/04/28 04:13:40;;;;;;;26.15;11.60;;;;;;;15.82;40.36;94091.16;5010094;28;20041;-83
2022/04/28 04:16:05;;;;;;;29.25;12.65;;;;;;;15.82;40.86;94098.59;5015772;28;20061;-83
2022/04/28 04:18:31;;;;;;;23.70;13.70;;;;;;;15.74;40.92;94096.28;4973901;28;20069;-83
2022/04/28 04:20:57;;;;;;;12.35;8.63;;;;;;;15.69;39.23;94104.41;4992679;28;20039;-86
2022/04/28 04:23:23;;;;;;;12.10;6.88;;;;;;;15.68;39.80;94105.63;4987533;28;20073;-87
2022/04/28 04:25:50;;;;;;;10.82;6.93;;;;;;;15.58;39.74;94107.75;4993095;28;20050;-85
2022/04/28 04:28:15;;;;;;;7.90;5.30;;;;;;;15.53;39.48;94108.38;4993872;28;20058;-87
2022/04/28 04:33:25;;;;;;;17.67;8.02;;;;;;;15.51;39.28;94108.09;4997377;28;20052;-87
2022/04/28 04:35:50;;;;;;;20.58;11.18;;;;;;;15.44;39.52;94111.97;4991896;28;20050;-83
2022/04/28 04:38:16;;;;;;;30.58;12.45;;;;;;;15.37;39.58;94109.63;4989335;28;20061;-85
2022/04/28 04:40:41;;;;;;;27.35;14.02;;;;;;;15.43;39.52;94107.00;4986241;28;20050;-85
2022/04/28 04:43:13;;;;;;;29.15;12.95;;;;;;;15.43;39.55;94113.19;4988347;28;20050;-86
2022/04/28 04:45:44;;;;;;;62.83;28.40;;;;;;;15.47;39.60;94118.44;5003024;28;20052;-85
2022/04/28 04:48:12;;;;;;;;;;;;;;;15.56;39.72;94114.88;4986373;28;20041;-86
2022/04/28 04:50:38;;;;;;;45.33;15.85;;;;;;;15.57;39.32;94114.41;4991493;28;19947;-90
2022/04/28 04:53:06;;;;;;;30.17;14.15;;;;;;;15.58;39.56;94115.16;4990184;28;20080;-88
2022/04/28 04:55:33;;;;;;;42.85;16.38;;;;;;;15.57;39.62;94122.59;4994612;28;20041;-86
2022/04/28 04:57:58;;;;;;;54.85;20.63;;;;;;;15.65;39.77;94128.38;4977586;28;20056;-90
2022/04/28 05:00:24;;;;;;;52.22;27.88;;;;;;;15.63;40.22;94128.09;4995227;28;20802;-86
2022/04/28 05:02:49;;;;;;;50.95;24.38;;;;;;;15.65;40.08;94131.09;4991511;28;20509;-86
2022/04/28 05:05:15;;;;;;;64.50;24.52;;;;;;;15.66;40.80;94127.91;5011486;28;20071;-85
2022/04/28 05:07:41;;;;;;;57.58;24.48;;;;;;;15.68;40.40;94132.88;4993624;28;20173;-85
2022/04/28 05:10:07;;;;;;;42.85;17.15;;;;;;;15.73;40.85;94130.22;4979996;28;20523;-90
2022/04/28 05:12:33;;;;;;;75.35;18.23;;;;;;;15.70;40.63;94135.88;4995874;28;20038;-88
2022/04/28 05:14:58;;;;;;;43.83;12.30;;;;;;;15.58;40.75;94137.72;5009018;28;20128;-87
2022/04/28 05:17:24;;;;;;;27.45;15.07;;;;;;;15.56;40.18;94134.72;4992849;28;20045;-86
2022/04/28 05:19:49;;;;;;;27.75;14.63;;;;;;;15.51;40.15;94131.88;4979300;28;20048;-86
2022/04/28 05:22:15;;;;;;;32.47;14.27;;;;;;;15.51;40.54;94140.81;4985341;28;20034;-85
2022/04/28 05:24:40;;;;;;;27.92;14.52;;;;;;;15.55;40.77;94140.59;4977766;28;20049;-86
2022/04/28 05:27:06;;;;;;;27.23;14.90;;;;;;;15.52;40.47;94145.03;5008892;28;20034;-85
2022/04/28 05:29:31;;;;;;;31.17;12.25;;;;;;;15.42;41.14;94144.38;5001969;28;20054;-89
2022/04/28 05:31:57;;;;;;;33.33;16.05;;;;;;;15.43;41.78;94145.88;4989647;28;20029;-87
2022/04/28 05:34:22;;;;;;;45.97;17.80;;;;;;;15.43;41.96;94145.88;4998340;28;20417;-87
2022/04/28 05:36:48;;;;;;;49.20;18.13;;;;;;;15.40;42.09;94155.00;4990677;28;20034;-86
2022/04/28 05:39:14;;;;;;;253.85;48.70;;;;;;;15.44;42.53;94154.81;4973929;28;20112;-86
2022/04/28 05:41:40;;;;;;;61.63;18.48;;;;;;;15.42;42.12;94159.97;4976400;28;20116;-88
2022/04/28 05:46:53;;;;;;;107.97;49.28;;;;;;;15.43;41.98;94158.75;4974745;28;20116;-88
2022/04/28 05:49:18;;;;;;;172.82;77.70;;;;;;;15.41;41.73;94172.84;4955087;28;20077;-87
2022/04/28 05:51:44;;;;;;;157.60;73.35;;;;;;;15.35;41.82;94168.56;4956147;28;20077;-88
2022/04/28 05:54:09;;;;;;;82.97;38.50;;;;;;;15.38;42.10;94170.31;4976753;28;20125;-88
2022/04/28 05:56:35;;;;;;;170.50;69.22;;;;;;;15.37;42.17;94177.72;4976301;28;20035;-88
2022/04/28 05:59:01;;;;;;;160.10;69.47;;;;;;;15.30;42.03;94172.69;4974384;28;20053;-87
2022/04/28 06:01:28;;;;;;;149.07;65.05;;;;;;;15.38;41.98;94159.41;4971712;28;20042;-87
2022/04/28 06:03:53;;;;;;;146.88;62.78;;;;;;;15.39;42.09;94175.28;4955763;28;20117;-89
2022/04/28 06:06:19;;;;;;;186.55;78.13;;;;;;;15.44;41.94;94176.59;4941229;28;20046;-86
2022/04/28 06:08:44;;;;;;;203.30;82.95;;;;;;;15.46;41.83;94174.16;4954047;28;20047;-87
2022/04/28 06:11:10;;;;;;;153.95;59.40;;;;;;;15.51;41.67;94173.50;4970137;28;20126;-89
2022/04/28 06:13:37;;;;;;;133.65;55.58;;;;;;;15.54;41.65;94179.97;4941575;28;20050;-85
2022/04/28 06:16:03;;;;;;;120.53;49.58;;;;;;;15.64;41.60;94179.41;4986169;28;20038;-87
2022/04/28 06:18:29;;;;;;;128.00;49.80;;;;;;;15.67;41.45;94183.16;4969185;28;20042;-87
2022/04/28 06:20:55;;;;;;;121.30;49.00;;;;;;;15.68;41.34;94185.41;4966979;28;20038;-87
2022/04/28 06:23:21;;;;;;;125.78;55.15;;;;;;;15.72;41.26;94177.03;4990541;28;20034;-89
2022/04/28 06:25:47;;;;;;;128.52;56.92;;;;;;;15.77;41.29;94184.56;5001296;28;20064;-88
2022/04/28 06:28:13;;;;;;;121.22;57.03;;;;;;;15.83;41.47;94185.38;4990672;28;20055;-87
2022/04/28 06:30:39;;;;;;;129.93;55.78;;;;;;;15.84;41.46;94188.84;5008806;28;20044;-88
2022/04/28 06:33:04;;;;;;;111.18;52.40;;;;;;;15.83;41.59;94190.06;4990487;28;20026;-88
2022/04/28 06:35:33;;;;;;;83.35;41.40;;;;;;;15.85;40.81;94193.81;4987153;28;20700;-89
2022/04/28 06:37:59;;;;;;;57.60;26.90;;;;;;;15.85;39.90;94188.38;4976227;28;20465;-90
2022/04/28 06:40:25;;;;;;;54.15;27.25;;;;;;;15.77;40.39;94179.84;4976164;28;20046;-89
2022/04/28 06:42:52;;;;;;;88.32;36.92;;;;;;;15.81;40.78;94190.53;4968181;28;20485;-88
2022/04/28 06:45:17;;;;;;;98.45;46.35;;;;;;;15.84;40.62;94191.56;4974274;28;20386;-87
2022/04/28 06:47:43;;;;;;;77.18;40.85;;;;;;;15.87;40.42;94198.81;4993001;28;20503;-89
2022/04/28 06:50:09;;;;;;;101.32;45.38;;;;;;;15.87;40.84;94201.53;4976004;28;20057;-90
2022/04/28 06:52:36;;;;;;;130.65;61.25;;;;;;;15.93;40.71;94196.91;4968003;28;20046;-87
2022/04/28 06:55:04;;;;;;;147.68;67.68;;;;;;;15.96;41.00;94193.97;4961754;28;20177;-89
2022/04/28 06:57:29;;;;;;;162.02;74.35;;;;;;;15.96;40.89;94204.13;4986113;28;20038;-88
2022/04/28 06:59:56;;;;;;;177.05;84.25;;;;;;;15.94;41.07;94196.44;4986939;28;20041;-91
2022/04/28 07:02:32;;;;;;;193.88;85.60;;;;;;;15.99;41.05;94190.31;4990712;28;20045;-92
2022/04/28 07:04:57;;;;;;;182.90;84.05;;;;;;;16.02;41.34;94199.53;4998142;28;20042;-91
2022/04/28 07:07:23;;;;;;;172.63;84.80;;;;;;;16.06;41.01;94205.50;4977154;28;20045;-90
2022/04/28 07:09:48;;;;;;;167.50;83.28;;;;;;;16.06;41.00;94206.25;4995596;28;20599;-90
2022/04/28 07:12:14;;;;;;;179.00;82.43;;;;;;;16.09;41.29;94202.56;4975271;28;20045;-88
2022/04/28 07:14:39;;;;;;;173.40;84.15;;;;;;;16.13;41.10;94207.84;4998103;28;20121;-90
2022/04/28 07:17:05;;;;;;;198.52;88.72;;;;;;;16.15;41.35;94199.94;4994456;28;20053;-90
2022/04/28 07:19:30;;;;;;;215.90;102.57;;;;;;;16.14;41.14;94206.59;4993406;28;20053;-91
2022/04/28 07:21:56;;;;;;;187.20;98.60;;;;;;;16.14;41.33;94209.34;5012903;28;20045;-90
2022/04/28 07:24:21;;;;;;;198.95;96.20;;;;;;;16.16;40.98;94214.31;4991358;28;20049;-90
2022/04/28 07:26:48;;;;;;;195.25;96.63;;;;;;;16.16;41.25;94215.06;4975427;28;20489;-91
2022/04/28 07:29:13;;;;;;;244.77;98.93;;;;;;;16.21;41.19;94214.41;5011429;28;20041;-89
2022/04/28 07:31:39;;;;;;;159.18;72.65;;;;;;;16.18;40.81;94225.50;4973306;28;20050;-91
2022/04/28 07:34:04;;;;;;;106.90;50.47;;;;;;;16.18;40.45;94214.59;4977677;28;20092;-90
2022/04/28 07:36:30;;;;;;;111.43;49.05;;;;;;;16.18;40.24;94223.53;4967901;28;20037;-89
2022/04/28 07:38:57;;;;;;;139.50;56.95;;;;;;;16.18;40.44;94228.97;4979775;28;20037;-90
2022/04/28 07:41:22;;;;;;;135.00;59.20;;;;;;;16.22;40.64;94217.88;4985036;28;20558;-88
2022/04/28 07:43:48;;;;;;;138.95;63.38;;;;;;;16.23;40.56;94236.50;4974066;28;20046;-88
2022/04/28 07:46:13;;;;;;;136.32;67.03;;;;;;;16.24;40.84;94227.06;4975185;28;20065;-88
2022/04/28 07:48:40;;;;;;;170.48;76.03;;;;;;;16.26;40.96;94226.59;4974915;28;20058;-89
2022/04/28 07:51:05;;;;;;;164.20;71.45;;;;;;;16.28;40.92;94233.06;4974479;28;20127;-88
2022/04/28 07:53:32;;;;;;;148.75;71.72;;;;;;;16.30;40.92;94232.59;4945881;28;20053;-87
2022/04/28 07:56:10;;;;;;;151.60;72.20;;;;;;;16.34;41.16;94236.63;4967314;28;20718;-88
2022/04/28 07:58:36;;;;;;;171.38;80.50;;;;;;;16.36;40.85;94233.41;4936453;28;20651;-88
2022/04/28 08:01:02;;;;;;;159.73;72.45;;;;;;;16.37;41.15;94235.69;4948104;28;20061;-90
2022/04/28 08:03:28;;;;;;;158.27;70.43;;;;;;;16.35;41.00;94227.22;4948794;28;20046;-91
2022/04/28 08:05:53;;;;;;;143.02;67.32;;;;;;;16.35;40.93;94235.41;4958362;28;20059;-85
2022/04/28 08:08:20;;;;;;;151.70;66.68;;;;;;;16.37;40.84;94232.94;4949848;28;20043;-87
2022/04/28 08:10:46;;;;;;;129.57;67.88;;;;;;;16.37;40.96;94232.94;4968165;28;20049;-87
2022/04/28 08:13:11;;;;;;;145.65;69.78;;;;;;;16.39;40.79;94227.00;4940541;28;20113;-88
2022/04/28 08:15:37;;;;;;;169.50;71.70;;;;;;;16.41;41.28;94230.78;4925804;28;20043;-87
2022/04/28 08:18:02;;;;;;;201.77;96.95;;;;;;;16.40;40.97;94239.44;4951825;28;20615;-88
2022/04/28 08:20:28;;;;;;;195.07;88.45;;;;;;;16.41;41.13;94230.78;4941206;28;20047;-88
2022/04/28 08:22:53;;;;;;;153.88;78.63;;;;;;;16.41;40.93;94240.94;4966220;28;20592;-86
2022/04/28 08:25:19;;;;;;;154.77;72.28;;;;;;;16.37;41.00;94240.38;4981485;28;20042;-89
2022/04/28 08:27:44;;;;;;;172.15;76.72;;;;;;;16.37;41.56;94249.31;4975027;28;20073;-85
2022/04/28 08:30:11;;;;;;;207.32;91.65;;;;;;;16.37;41.54;94251.28;4989221;28;20442;-86
2022/04/28 08:32:36;;;;;;;192.38;86.82;;;;;;;16.36;41.45;94241.59;4983591;28;20057;-87
2022/04/28 08:35:02;;;;;;;207.55;82.78;;;;;;;16.38;41.68;94245.38;4993480;28;20050;-87
2022/04/28 08:37:28;;;;;;;203.27;88.72;;;;;;;16.39;41.23;94254.31;4973983;28;20041;-86
2022/04/28 08:39:53;;;;;;;209.80;96.45;;;;;;;16.38;41.71;94250.81;4995373;28;20432;-89
2022/04/28 08:42:20;;;;;;;198.65;90.28;;;;;;;16.39;41.44;94259.75;4995664;28;20065;-89
2022/04/28 08:44:45;;;;;;;201.77;89.10;;;;;;;16.44;41.59;94261.81;4993206;28;20041;-86
2022/04/28 08:47:11;;;;;;;185.50;83.40;;;;;;;16.43;40.84;94263.03;5007868;28;20042;-86
2022/04/28 08:49:37;;;;;;;122.43;53.13;;;;;;;16.33;39.37;94261.66;4992214;28;20081;-86
2022/04/28 08:52:03;;;;;;;101.80;46.00;;;;;;;16.33;39.45;94264.38;4977017;28;20029;-87
2022/04/28 08:54:29;;;;;;;113.18;47.95;;;;;;;16.32;39.25;94263.63;4991523;28;20039;-87
2022/04/28 08:56:56;;;;;;;110.63;47.55;;;;;;;16.31;39.46;94264.84;4972148;28;20038;-87
2022/04/28 08:59:22;;;;;;;86.03;39.92;;;;;;;16.33;40.04;94262.41;4985502;28;20254;-86
2022/04/28 09:01:48;;;;;;;125.70;51.97;;;;;;;16.31;40.02;94262.13;4974994;28;20108;-88
2022/04/28 09:04:13;;;;;;;155.98;67.30;;;;;;;16.32;40.53;94258.19;4974283;28;20060;-86
2022/04/28 09:06:40;;;;;;;162.82;80.97;;;;;;;16.34;40.63;94268.63;5004804;28;20030;-85
2022/04/28 09:09:12;;;;;;;124.75;58.05;;;;;;;16.36;40.76;94268.91;4978459;28;20041;-85
2022/04/28 09:11:40;;;;;;;163.07;73.45;;;;;;;16.40;40.36;94267.47;4987939;28;20092;-87
2022/04/28 09:14:18;;;;;;;107.43;52.90;;;;;;;16.32;40.40;94262.88;4993897;28;20049;-87
2022/04/28 09:16:50;;;;;;;100.30;49.67;;;;;;;16.32;39.50;94268.34;4975153;28;20509;-89
2022/04/28 09:19:24;;;;;;;190.02;78.85;;;;;;;16.33;40.53;94270.59;4984705;28;20081;-86
2022/04/28 09:21:50;;;;;;;182.32;77.25;;;;;;;16.36;40.57;94266.91;4995174;28;20050;-89
2022/04/28 09:24:18;;;;;;;169.68;77.22;;;;;;;16.36;40.62;94266.16;4991473;28;20034;-88
2022/04/28 09:26:47;;;;;;;175.27;74.57;;;;;;;16.38;40.54;94275.38;4995010;28;20232;-87
2022/04/28 09:29:13;;;;;;;164.60;71.60;;;;;;;16.39;40.40;94263.25;4981266;28;20053;-87
2022/04/28 09:31:40;;;;;;;167.02;73.88;;;;;;;16.43;40.59;94273.97;4971356;28;20065;-87
2022/04/28 09:34:06;;;;;;;137.27;70.25;;;;;;;16.42;40.85;94273.22;4979225;28;20046;-89
2022/04/28 09:36:31;;;;;;;149.98;69.40;;;;;;;16.45;40.72;94268.78;4993361;28;20041;-88
2022/04/28 09:38:57;;;;;;;165.90;77.53;;;;;;;16.45;40.86;94277.69;4976645;28;20049;-89
2022/04/28 09:44:08;;;;;;;267.23;129.05;;;;;;;16.46;41.02;94279.19;5009151;28;20099;-88
2022/04/28 09:46:39;;;;;;;179.50;87.25;;;;;;;16.46;40.62;94281.16;5013457;28;20116;-89
2022/04/28 09:49:04;;;;;;;134.43;59.25;;;;;;;16.41;38.92;94271.69;4983852;28;20058;-88
2022/04/28 09:51:31;;;;;;;134.07;59.75;;;;;;;16.43;38.68;94276.69;4970101;28;20497;-89
2022/04/28 09:53:57;;;;;;;276.58;74.47;;;;;;;16.35;37.63;94278.31;4941406;28;20066;-88
2022/04/28 09:56:30;;;;;;;211.32;60.17;;;;;;;16.39;37.65;94279.63;4956918;28;20042;-87
2022/04/28 09:58:57;;;;;;;192.63;55.83;;;;;;;16.29;36.93;94269.28;4957678;28;20038;-88
2022/04/28 10:01:22;;;;;;;158.18;47.20;;;;;;;16.32;37.24;94273.78;4939935;28;20046;-85
2022/04/28 10:03:48;;;;;;;128.68;42.28;;;;;;;16.29;36.54;94270.03;4967197;28;20038;-89
2022/04/28 10:06:13;;;;;;;117.97;44.75;;;;;;;16.26;36.06;94259.31;4949571;28;20083;-86
2022/04/28 10:08:39;;;;;;;78.35;35.45;;;;;;;16.20;35.22;94270.19;4951098;28;20101;-88
2022/04/28 10:11:05;;;;;;;62.60;22.33;;;;;;;16.19;35.63;94265.94;4949766;28;20038;-89
2022/04/28 10:13:31;;;;;;;58.60;23.42;;;;;;;16.15;36.17;94281.75;4957990;28;20034;-86
2022/04/28 10:16:06;;;;;;;51.17;20.92;;;;;;;16.16;36.40;94274.31;4981118;28;20041;-85
2022/04/28 10:18:37;;;;;;;46.03;21.25;;;;;;;16.13;35.88;94278.00;4968029;28;20035;-87
2022/04/28 10:21:03;;;;;;;37.88;17.45;;;;;;;16.15;35.51;94275.56;4968865;28;20039;-88
2022/04/28 10:32:22;;;;;;;57.88;20.83;;;;;;;16.20;35.98;94278.38;5003729;28;20053;-85
2022/04/28 10:35:01;;;;;;;86.43;27.48;;;;;;;16.21;36.21;94277.13;4966115;28;20050;-90
2022/04/28 10:37:30;;;;;;;50.30;21.25;;;;;;;16.22;36.45;94273.19;4990647;28;20138;-90
2022/04/28 10:39:55;;;;;;;53.15;22.55;;;;;;;16.25;36.60;94264.03;4985374;28;20030;-84
2022/04/28 10:42:42;;;;;;;56.90;23.58;;;;;;;16.26;37.15;94267.50;5006935;28;20112;-85
2022/04/28 10:45:24;;;;;;;53.47;24.98;;;;;;;16.28;36.96;94259.59;5006323;28;20041;-86
2022/04/28 10:47:50;;;;;;;61.05;26.60;;;;;;;16.32;37.00;94269.09;4975593;28;20058;-86
2022/04/28 10:50:25;;;;;;;59.33;25.33;;;;;;;16.33;37.13;94267.88;5004586;28;20493;-90
2022/04/28 10:52:55;;;;;;;173.85;36.67;;;;;;;16.38;37.28;94269.91;4976838;28;20037;-86
2022/04/28 10:55:23;;;;;;;199.35;47.78;;;;;;;16.34;37.17;94266.63;4994624;28;20033;-85
2022/04/28 10:57:48;;;;;;;134.00;36.13;;;;;;;16.34;36.53;94260.44;4991755;28;20044;-86
2022/04/28 11:00:33;;;;;;;109.13;30.40;;;;;;;16.34;36.72;94271.34;5006359;28;20050;-84
2022/04/28 11:02:59;;;;;;;111.72;29.73;;;;;;;16.34;36.81;94269.38;4980769;28;20042;-86
2022/04/28 11:05:29;;;;;;;93.65;26.85;;;;;;;16.33;37.37;94264.38;4991801;28;20089;-86
2022/04/28 11:07:55;;;;;;;181.13;57.22;;;;;;;16.35;37.64;94265.41;5000203;28;20552;-88
2022/04/28 11:10:21;;;;;;;179.77;67.70;;;;;;;16.33;37.60;94267.13;4986732;28;20083;-87
2022/04/28 11:12:46;;;;;;;218.60;56.75;;;;;;;16.40;37.54;94261.25;4968735;28;20038;-88
2022/04/28 11:15:14;;;;;;;173.80;49.78;;;;;;;16.39;37.50;94271.41;4986705;28;20049;-92
2022/04/28 11:17:43;;;;;;;159.90;52.38;;;;;;;16.39;37.79;94265.97;4995944;28;20050;-84
2022/04/28 11:20:13;;;;;;;125.25;48.65;;;;;;;16.36;37.69;94272.38;5020348;28;20038;-84
2022/04/28 11:22:46;;;;;;;126.70;47.78;;;;;;;16.40;37.35;94272.94;4961349;28;20580;-85
2022/04/28 11:25:15;;;;;;;105.28;44.92;;;;;;;16.39;37.10;94268.69;4983784;28;20065;-87
2022/04/28 11:27:42;;;;;;;131.00;47.28;;;;;;;16.39;37.44;94262.50;4976011;28;20064;-92
2022/04/28 11:30:13;;;;;;;118.95;46.28;;;;;;;16.37;37.48;94271.16;4991949;28;20069;-90
2022/04/28 11:32:50;;;;;;;118.65;42.95;;;;;;;16.41;37.11;94276.41;4993666;28;20066;-88
2022/04/28 11:35:15;;;;;;;116.38;47.28;;;;;;;16.40;37.27;94277.63;4967448;28;20096;-87
2022/04/28 11:37:41;;;;;;;144.50;49.92;;;;;;;16.44;37.45;94276.22;4986897;28;20494;-85
2022/04/28 11:40:07;;;;;;;152.48;54.60;;;;;;;16.41;37.04;94279.88;4988780;28;20563;-85
2022/04/28 11:42:36;;;;;;;103.25;40.30;;;;;;;16.32;36.00;94273.78;4990221;28;20065;-86
2022/04/28 11:45:01;;;;;;;70.32;30.77;;;;;;;16.22;35.48;94284.09;5000232;28;20115;-86
2022/04/28 11:47:27;;;;;;;72.25;30.08;;;;;;;16.26;35.31;94279.16;4971395;28;20493;-84